sensor_id;sensor_type;location;lat;lon;timestamp;pressure;altitude;pressure_sealevel;temperature;humidity
11676;BME280;5894;42.768;23.404;2023-06-22T00:01:17;96026.00;;;20.47;100.00
11676;BME280;5894;42.768;23.404;2023-06-22T00:03:44;95992.56;;;20.22;100.00
11676;BME280;5894;42.768;23.404;2023-06-22T00:06:11;96024.66;;;20.38;100.00
11676;BME280;5894;42.768;23.404;2023-06-22T00:08:40;96032.53;;;20.31;100.00
11676;BME280;5894;42.768;23.404;2023-06-22T00:11:07;96029.34;;;20.25;100.00
11676;BME280;5894;42.768;23.404;2023-06-22T00:13:34;96031.97;;;20.22;100.00
11676;BME280;5894;42.768;23.404;2023-06-22T00:16:01;96038.44;;;20.21;100.00
11676;BME280;5894;42.768;23.404;2023-06-22T00:18:28;96033.78;;;20.17;100.00
11676;BME280;5894;42.768;23.404;2023-06-22T00:20:56;96027.22;;;20.15;100.00
11676;BME280;5894;42.768;23.404;2023-06-22T00:23:26;96021.38;;;20.09;100.00
11676;BME280;5894;42.768;23.404;2023-06-22T00:25:54;96014.81;;;20.07;100.00
11676;BME280;5894;42.768;23.404;2023-06-22T00:28:21;96013.63;;;20.04;100.00
11676;BME280;5894;42.768;23.404;2023-06-22T00:30:49;96015.50;;;20.04;100.00
11676;BME280;5894;42.768;23.404;2023-06-22T00:33:16;96018.91;;;20.01;100.00
11676;BME280;5894;42.768;23.404;2023-06-22T00:35:43;96026.50;;;19.99;100.00
11676;BME280;5894;42.768;23.404;2023-06-22T00:38:10;96020.28;;;19.95;100.00
11676;BME280;5894;42.768;23.404;2023-06-22T00:40:37;96021.00;;;19.92;100.00
11676;BME280;5894;42.768;23.404;2023-06-22T00:43:06;96013.31;;;19.90;100.00
11676;BME280;5894;42.768;23.404;2023-06-22T00:45:34;96013.59;;;19.85;100.00
11676;BME280;5894;42.768;23.404;2023-06-22T00:48:02;96015.44;;;19.81;100.00
11676;BME280;5894;42.768;23.404;2023-06-22T00:50:32;96020.84;;;19.85;100.00
11676;BME280;5894;42.768;23.404;2023-06-22T00:53:03;96016.81;;;19.75;100.00
11676;BME280;5894;42.768;23.404;2023-06-22T00:55:35;96024.69;;;19.68;100.00
11676;BME280;5894;42.768;23.404;2023-06-22T00:58:06;95990.94;;;19.48;100.00
11676;BME280;5894;42.768;23.404;2023-06-22T01:00:36;96024.59;;;19.64;100.00
11676;BME280;5894;42.768;23.404;2023-06-22T01:03:03;96025.72;;;19.63;100.00
11676;BME280;5894;42.768;23.404;2023-06-22T01:05:34;96032.63;;;19.64;100.00
11676;BME280;5894;42.768;23.404;2023-06-22T01:08:19;96030.66;;;19.61;100.00
11676;BME280;5894;42.768;23.404;2023-06-22T01:10:51;96019.34;;;19.52;100.00
11676;BME280;5894;42.768;23.404;2023-06-22T01:13:28;96019.09;;;19.57;100.00
11676;BME280;5894;42.768;23.404;2023-06-22T01:16:01;96018.59;;;19.52;100.00
11676;BME280;5894;42.768;23.404;2023-06-22T01:18:30;96060.97;;;19.50;100.00
11676;BME280;5894;42.768;23.404;2023-06-22T01:21:00;96027.38;;;19.52;100.00
11676;BME280;5894;42.768;23.404;2023-06-22T01:23:44;96028.91;;;19.53;100.00
11676;BME280;5894;42.768;23.404;2023-06-22T01:26:20;96017.94;;;19.42;100.00
11676;BME280;5894;42.768;23.404;2023-06-22T01:28:50;96026.84;;;19.47;100.00
11676;BME280;5894;42.768;23.404;2023-06-22T01:31:21;96016.47;;;19.45;100.00
11676;BME280;5894;42.768;23.404;2023-06-22T01:33:54;96023.84;;;19.48;100.00
11676;BME280;5894;42.768;23.404;2023-06-22T01:36:23;96030.75;;;19.49;100.00
11676;BME280;5894;42.768;23.404;2023-06-22T01:38:52;96032.09;;;19.43;100.00
11676;BME280;5894;42.768;23.404;2023-06-22T01:41:20;96035.09;;;19.41;100.00
11676;BME280;5894;42.768;23.404;2023-06-22T01:43:47;96033.59;;;19.40;100.00
11676;BME280;5894;42.768;23.404;2023-06-22T01:46:18;96030.81;;;19.37;100.00
11676;BME280;5894;42.768;23.404;2023-06-22T01:48:46;96025.47;;;19.37;100.00
11676;BME280;5894;42.768;23.404;2023-06-22T01:51:14;96023.75;;;19.29;100.00
11676;BME280;5894;42.768;23.404;2023-06-22T01:53:41;96035.03;;;19.38;100.00
11676;BME280;5894;42.768;23.404;2023-06-22T01:56:08;96045.72;;;19.38;100.00
11676;BME280;5894;42.768;23.404;2023-06-22T01:58:38;96041.06;;;19.35;100.00
11676;BME280;5894;42.768;23.404;2023-06-22T02:01:10;96042.63;;;19.36;100.00
11676;BME280;5894;42.768;23.404;2023-06-22T02:03:43;96042.28;;;19.37;100.00
11676;BME280;5894;42.768;23.404;2023-06-22T02:06:16;96048.41;;;19.38;100.00
11676;BME280;5894;42.768;23.404;2023-06-22T02:08:48;96050.31;;;19.37;100.00
11676;BME280;5894;42.768;23.404;2023-06-22T02:11:18;96053.31;;;19.36;100.00
11676;BME280;5894;42.768;23.404;2023-06-22T02:13:47;96051.09;;;19.38;100.00
11676;BME280;5894;42.768;23.404;2023-06-22T02:16:16;96060.66;;;19.39;100.00
11676;BME280;5894;42.768;23.404;2023-06-22T02:18:47;96058.34;;;19.37;100.00
11676;BME280;5894;42.768;23.404;2023-06-22T02:21:16;96053.31;;;19.36;100.00
11676;BME280;5894;42.768;23.404;2023-06-22T02:23:43;96048.31;;;19.34;100.00
11676;BME280;5894;42.768;23.404;2023-06-22T02:26:10;96048.66;;;19.33;100.00
11676;BME280;5894;42.768;23.404;2023-06-22T02:28:38;96038.31;;;19.31;100.00
11676;BME280;5894;42.768;23.404;2023-06-22T02:31:05;96038.66;;;19.30;100.00
11676;BME280;5894;42.768;23.404;2023-06-22T02:33:32;96038.56;;;19.26;100.00
11676;BME280;5894;42.768;23.404;2023-06-22T02:36:01;96043.59;;;19.28;100.00
11676;BME280;5894;42.768;23.404;2023-06-22T02:38:30;96033.41;;;19.18;100.00
11676;BME280;5894;42.768;23.404;2023-06-22T02:41:00;96047.53;;;19.18;100.00
11676;BME280;5894;42.768;23.404;2023-06-22T02:43:26;96054.00;;;19.17;100.00
11676;BME280;5894;42.768;23.404;2023-06-22T02:45:53;96052.78;;;19.15;100.00
11676;BME280;5894;42.768;23.404;2023-06-22T02:48:21;96050.38;;;19.10;100.00
11676;BME280;5894;42.768;23.404;2023-06-22T02:50:48;96050.81;;;19.12;100.00
11676;BME280;5894;42.768;23.404;2023-06-22T02:53:16;96050.03;;;19.11;100.00
11676;BME280;5894;42.768;23.404;2023-06-22T02:55:46;96052.28;;;19.09;100.00
11676;BME280;5894;42.768;23.404;2023-06-22T02:58:13;96054.19;;;19.09;100.00
11676;BME280;5894;42.768;23.404;2023-06-22T03:00:40;96059.09;;;19.06;100.00
11676;BME280;5894;42.768;23.404;2023-06-22T03:03:07;96054.84;;;19.05;100.00
11676;BME280;5894;42.768;23.404;2023-06-22T03:05:34;96057.44;;;19.02;100.00
11676;BME280;5894;42.768;23.404;2023-06-22T03:08:02;96055.19;;;19.04;100.00
11676;BME280;5894;42.768;23.404;2023-06-22T03:10:33;96050.97;;;19.03;100.00
11676;BME280;5894;42.768;23.404;2023-06-22T03:13:00;96063.31;;;19.08;100.00
11676;BME280;5894;42.768;23.404;2023-06-22T03:15:27;96063.31;;;19.08;100.00
11676;BME280;5894;42.768;23.404;2023-06-22T03:17:55;96071.78;;;19.10;100.00
11676;BME280;5894;42.768;23.404;2023-06-22T03:20:23;96078.66;;;19.11;100.00
11676;BME280;5894;42.768;23.404;2023-06-22T03:22:52;96074.09;;;19.11;100.00
11676;BME280;5894;42.768;23.404;2023-06-22T03:25:19;96083.66;;;19.12;100.00
11676;BME280;5894;42.768;23.404;2023-06-22T03:27:50;96071.84;;;19.13;100.00
11676;BME280;5894;42.768;23.404;2023-06-22T03:30:17;96075.63;;;19.12;100.00
11676;BME280;5894;42.768;23.404;2023-06-22T03:32:45;96085.56;;;19.12;100.00
11676;BME280;5894;42.768;23.404;2023-06-22T03:35:12;96079.34;;;19.08;100.00
11676;BME280;5894;42.768;23.404;2023-06-22T03:37:40;96081.69;;;19.09;100.00
11676;BME280;5894;42.768;23.404;2023-06-22T03:40:09;96079.09;;;19.13;100.00
11676;BME280;5894;42.768;23.404;2023-06-22T03:42:36;96083.66;;;19.12;100.00
11676;BME280;5894;42.768;23.404;2023-06-22T03:45:05;96082.88;;;19.12;100.00
11676;BME280;5894;42.768;23.404;2023-06-22T03:47:32;96082.09;;;19.11;100.00
11676;BME280;5894;42.768;23.404;2023-06-22T03:50:00;96087.44;;;19.11;100.00
11676;BME280;5894;42.768;23.404;2023-06-22T03:52:29;96098.91;;;19.12;100.00
11676;BME280;5894;42.768;23.404;2023-06-22T03:54:56;96098.91;;;19.12;100.00
11676;BME280;5894;42.768;23.404;2023-06-22T03:57:23;96103.94;;;19.13;100.00
11676;BME280;5894;42.768;23.404;2023-06-22T03:59:50;96098.59;;;19.13;100.00
11676;BME280;5894;42.768;23.404;2023-06-22T04:02:18;96092.47;;;19.13;100.00
11676;BME280;5894;42.768;23.404;2023-06-22T04:04:45;96096.50;;;19.06;100.00
11676;BME280;5894;42.768;23.404;2023-06-22T04:07:12;96100.75;;;19.08;100.00
11676;BME280;5894;42.768;23.404;2023-06-22T04:09:39;96105.38;;;19.11;100.00
11676;BME280;5894;42.768;23.404;2023-06-22T04:12:07;96123.34;;;19.10;100.00
11676;BME280;5894;42.768;23.404;2023-06-22T04:14:34;96101.25;;;19.13;100.00
11676;BME280;5894;42.768;23.404;2023-06-22T04:17:01;96097.03;;;19.12;100.00
11676;BME280;5894;42.768;23.404;2023-06-22T04:19:30;96081.75;;;19.13;100.00
11676;BME280;5894;42.768;23.404;2023-06-22T04:21:57;96084.88;;;19.15;100.00
11676;BME280;5894;42.768;23.404;2023-06-22T04:24:24;96071.16;;;19.16;100.00
11676;BME280;5894;42.768;23.404;2023-06-22T04:26:52;96074.72;;;19.20;100.00
11676;BME280;5894;42.768;23.404;2023-06-22T04:29:20;96080.47;;;19.22;100.00
11676;BME280;5894;42.768;23.404;2023-06-22T04:31:54;96077.13;;;19.25;100.00
11676;BME280;5894;42.768;23.404;2023-06-22T04:34:23;96083.25;;;19.26;100.00
11676;BME280;5894;42.768;23.404;2023-06-22T04:36:53;96084.72;;;19.23;100.00
11676;BME280;5894;42.768;23.404;2023-06-22T04:39:20;96079.81;;;19.25;100.00
11676;BME280;5894;42.768;23.404;2023-06-22T04:41:48;96076.69;;;19.23;100.00
11676;BME280;5894;42.768;23.404;2023-06-22T04:44:17;96079.69;;;19.22;100.00
11676;BME280;5894;42.768;23.404;2023-06-22T04:46:49;96087.81;;;19.25;100.00
11676;BME280;5894;42.768;23.404;2023-06-22T04:49:20;96100.19;;;19.30;100.00
11676;BME280;5894;42.768;23.404;2023-06-22T04:51:47;96056.66;;;19.01;100.00
11676;BME280;5894;42.768;23.404;2023-06-22T04:54:18;96107.16;;;19.34;100.00
11676;BME280;5894;42.768;23.404;2023-06-22T04:56:46;96106.47;;;19.37;100.00
11676;BME280;5894;42.768;23.404;2023-06-22T04:59:14;96110.38;;;19.40;100.00
11676;BME280;5894;42.768;23.404;2023-06-22T05:01:44;96104.31;;;19.43;100.00
11676;BME280;5894;42.768;23.404;2023-06-22T05:04:11;96106.88;;;19.52;100.00
11676;BME280;5894;42.768;23.404;2023-06-22T05:06:38;96091.03;;;19.62;100.00
11676;BME280;5894;42.768;23.404;2023-06-22T05:09:05;96090.38;;;19.65;100.00
11676;BME280;5894;42.768;23.404;2023-06-22T05:11:34;96086.38;;;19.75;100.00
11676;BME280;5894;42.768;23.404;2023-06-22T05:14:00;96094.22;;;19.84;100.00
11676;BME280;5894;42.768;23.404;2023-06-22T05:16:28;96103.81;;;20.00;100.00
11676;BME280;5894;42.768;23.404;2023-06-22T05:18:55;96112.91;;;20.15;100.00
11676;BME280;5894;42.768;23.404;2023-06-22T05:21:23;96112.38;;;20.25;100.00
11676;BME280;5894;42.768;23.404;2023-06-22T05:23:51;96110.81;;;20.40;100.00
11676;BME280;5894;42.768;23.404;2023-06-22T05:26:18;96120.78;;;20.59;100.00
11676;BME280;5894;42.768;23.404;2023-06-22T05:28:47;96122.19;;;20.72;100.00
11676;BME280;5894;42.768;23.404;2023-06-22T05:31:15;96124.44;;;20.89;100.00
11676;BME280;5894;42.768;23.404;2023-06-22T05:33:43;96122.47;;;21.05;100.00
11676;BME280;5894;42.768;23.404;2023-06-22T05:36:11;96127.84;;;21.24;100.00
11676;BME280;5894;42.768;23.404;2023-06-22T05:38:38;96133.94;;;21.44;100.00
11676;BME280;5894;42.768;23.404;2023-06-22T05:41:06;96126.13;;;21.58;100.00
11676;BME280;5894;42.768;23.404;2023-06-22T05:43:33;96134.13;;;21.78;100.00
11676;BME280;5894;42.768;23.404;2023-06-22T05:46:02;96129.81;;;21.96;100.00
11676;BME280;5894;42.768;23.404;2023-06-22T05:48:28;96126.97;;;22.12;100.00
11676;BME280;5894;42.768;23.404;2023-06-22T05:50:56;96134.19;;;22.30;100.00
11676;BME280;5894;42.768;23.404;2023-06-22T05:53:23;96125.94;;;22.46;100.00
11676;BME280;5894;42.768;23.404;2023-06-22T05:55:50;96120.75;;;22.60;100.00
11676;BME280;5894;42.768;23.404;2023-06-22T05:58:17;96124.00;;;22.73;100.00
11676;BME280;5894;42.768;23.404;2023-06-22T06:00:44;96130.28;;;22.84;100.00
11676;BME280;5894;42.768;23.404;2023-06-22T06:03:13;96130.41;;;22.95;100.00
11676;BME280;5894;42.768;23.404;2023-06-22T06:05:42;96127.03;;;23.01;100.00
11676;BME280;5894;42.768;23.404;2023-06-22T06:08:10;96125.97;;;23.10;100.00
11676;BME280;5894;42.768;23.404;2023-06-22T06:10:37;96044.38;;;22.65;100.00
11676;BME280;5894;42.768;23.404;2023-06-22T06:13:04;96125.78;;;23.29;100.00
11676;BME280;5894;42.768;23.404;2023-06-22T06:15:32;96135.13;;;23.38;100.00
11676;BME280;5894;42.768;23.404;2023-06-22T06:17:59;96127.94;;;23.50;100.00
11676;BME280;5894;42.768;23.404;2023-06-22T06:29:18;96127.13;;;23.86;100.00
11676;BME280;5894;42.768;23.404;2023-06-22T06:31:45;96128.34;;;23.99;100.00
11676;BME280;5894;42.768;23.404;2023-06-22T06:34:11;96135.69;;;24.02;100.00
11676;BME280;5894;42.768;23.404;2023-06-22T06:36:38;96133.88;;;24.17;100.00
11676;BME280;5894;42.768;23.404;2023-06-22T06:39:05;96129.75;;;24.30;99.27
11676;BME280;5894;42.768;23.404;2023-06-22T06:41:32;96130.22;;;24.43;99.64
11676;BME280;5894;42.768;23.404;2023-06-22T06:44:00;96118.78;;;24.64;98.03
11676;BME280;5894;42.768;23.404;2023-06-22T06:46:28;96120.38;;;24.79;98.15
11676;BME280;5894;42.768;23.404;2023-06-22T06:48:55;96120.06;;;24.91;98.01
11676;BME280;5894;42.768;23.404;2023-06-22T06:51:22;96116.59;;;24.94;97.92
11676;BME280;5894;42.768;23.404;2023-06-22T06:53:49;96113.97;;;25.08;97.80
11676;BME280;5894;42.768;23.404;2023-06-22T06:56:16;96112.84;;;25.27;92.55
11676;BME280;5894;42.768;23.404;2023-06-22T06:58:43;96104.38;;;25.46;93.42
11676;BME280;5894;42.768;23.404;2023-06-22T07:01:10;96103.28;;;25.62;91.97
11676;BME280;5894;42.768;23.404;2023-06-22T07:03:39;96102.50;;;25.79;93.63
11676;BME280;5894;42.768;23.404;2023-06-22T07:06:06;96100.97;;;25.92;96.40
11676;BME280;5894;42.768;23.404;2023-06-22T07:08:33;96107.53;;;26.05;95.61
11676;BME280;5894;42.768;23.404;2023-06-22T07:11:00;96102.09;;;26.09;91.96
11676;BME280;5894;42.768;23.404;2023-06-22T07:13:28;96100.94;;;26.20;91.11
11676;BME280;5894;42.768;23.404;2023-06-22T07:15:55;96109.06;;;26.35;91.23
11676;BME280;5894;42.768;23.404;2023-06-22T07:18:22;96103.22;;;26.47;90.98
11676;BME280;5894;42.768;23.404;2023-06-22T07:20:50;96112.81;;;26.62;88.93
11676;BME280;5894;42.768;23.404;2023-06-22T07:23:17;96109.31;;;26.68;88.31
11676;BME280;5894;42.768;23.404;2023-06-22T07:25:44;96113.91;;;26.82;84.19
11676;BME280;5894;42.768;23.404;2023-06-22T07:28:11;96118.16;;;26.97;82.74
11676;BME280;5894;42.768;23.404;2023-06-22T07:30:38;96115.34;;;27.19;82.41
11676;BME280;5894;42.768;23.404;2023-06-22T07:33:05;96115.59;;;27.38;82.75
11676;BME280;5894;42.768;23.404;2023-06-22T07:35:34;96108.13;;;27.60;81.48
11676;BME280;5894;42.768;23.404;2023-06-22T07:38:02;96108.75;;;27.79;85.92
11676;BME280;5894;42.768;23.404;2023-06-22T07:40:29;96106.56;;;28.07;80.41
11676;BME280;5894;42.768;23.404;2023-06-22T07:42:56;96105.91;;;28.37;80.39
11676;BME280;5894;42.768;23.404;2023-06-22T07:45:23;96100.09;;;28.73;76.99
11676;BME280;5894;42.768;23.404;2023-06-22T07:47:51;96102.53;;;28.98;74.40
11676;BME280;5894;42.768;23.404;2023-06-22T07:50:18;96099.84;;;29.25;72.08
11676;BME280;5894;42.768;23.404;2023-06-22T07:52:45;96101.66;;;29.35;68.68
11676;BME280;5894;42.768;23.404;2023-06-22T07:55:14;96106.81;;;29.56;69.20
11676;BME280;5894;42.768;23.404;2023-06-22T07:57:41;96098.59;;;29.83;69.79
11676;BME280;5894;42.768;23.404;2023-06-22T08:00:09;96099.81;;;30.05;66.63
11676;BME280;5894;42.768;23.404;2023-06-22T08:02:38;96094.91;;;30.20;67.41
11676;BME280;5894;42.768;23.404;2023-06-22T08:05:06;96093.84;;;30.34;66.14
11676;BME280;5894;42.768;23.404;2023-06-22T08:07:34;96096.03;;;30.42;66.58
11676;BME280;5894;42.768;23.404;2023-06-22T08:10:04;96087.75;;;30.49;66.04
11676;BME280;5894;42.768;23.404;2023-06-22T08:12:32;96080.66;;;30.55;64.86
11676;BME280;5894;42.768;23.404;2023-06-22T08:14:59;96076.19;;;30.65;64.27
11676;BME280;5894;42.768;23.404;2023-06-22T08:17:26;96076.31;;;30.78;64.15
11676;BME280;5894;42.768;23.404;2023-06-22T08:19:53;96071.00;;;30.90;64.41
11676;BME280;5894;42.768;23.404;2023-06-22T08:22:20;96073.09;;;31.02;63.27
11676;BME280;5894;42.768;23.404;2023-06-22T08:24:47;96074.72;;;30.80;63.39
11676;BME280;5894;42.768;23.404;2023-06-22T08:27:14;96073.50;;;31.01;61.53
11676;BME280;5894;42.768;23.404;2023-06-22T08:29:45;96088.47;;;31.13;62.07
11676;BME280;5894;42.768;23.404;2023-06-22T08:32:12;96088.66;;;31.22;63.29
11676;BME280;5894;42.768;23.404;2023-06-22T08:34:39;96078.69;;;31.31;60.57
11676;BME280;5894;42.768;23.404;2023-06-22T08:37:07;96073.56;;;31.17;59.06
11676;BME280;5894;42.768;23.404;2023-06-22T08:39:34;96086.94;;;31.28;59.66
11676;BME280;5894;42.768;23.404;2023-06-22T08:42:01;96042.69;;;31.04;59.88
11676;BME280;5894;42.768;23.404;2023-06-22T08:44:28;96069.16;;;31.23;59.52
11676;BME280;5894;42.768;23.404;2023-06-22T08:46:57;96071.00;;;31.26;60.52
11676;BME280;5894;42.768;23.404;2023-06-22T08:49:24;96039.88;;;31.08;57.84
11676;BME280;5894;42.768;23.404;2023-06-22T08:51:51;96069.69;;;31.34;59.26
11676;BME280;5894;42.768;23.404;2023-06-22T08:54:20;96056.72;;;31.38;59.68
11676;BME280;5894;42.768;23.404;2023-06-22T08:56:47;96054.41;;;31.37;58.81
11676;BME280;5894;42.768;23.404;2023-06-22T08:59:14;96058.25;;;31.40;60.20
11676;BME280;5894;42.768;23.404;2023-06-22T09:01:41;96051.97;;;31.43;59.05
11676;BME280;5894;42.768;23.404;2023-06-22T09:04:15;96049.59;;;31.45;59.22
11676;BME280;5894;42.768;23.404;2023-06-22T09:06:42;96058.84;;;31.47;58.22
11676;BME280;5894;42.768;23.404;2023-06-22T09:09:12;96054.94;;;31.48;57.14
11676;BME280;5894;42.768;23.404;2023-06-22T09:11:40;96043.94;;;31.35;56.71
11676;BME280;5894;42.768;23.404;2023-06-22T09:14:07;96058.59;;;31.42;57.15
11676;BME280;5894;42.768;23.404;2023-06-22T09:16:34;96042.69;;;31.40;56.39
11676;BME280;5894;42.768;23.404;2023-06-22T09:19:01;96044.53;;;31.27;57.84
11676;BME280;5894;42.768;23.404;2023-06-22T09:21:29;96050.84;;;31.24;58.67
11676;BME280;5894;42.768;23.404;2023-06-22T09:23:56;96043.34;;;31.12;60.06
11676;BME280;5894;42.768;23.404;2023-06-22T09:26:23;96049.91;;;31.14;60.33
11676;BME280;5894;42.768;23.404;2023-06-22T09:28:50;96056.44;;;31.17;62.33
11676;BME280;5894;42.768;23.404;2023-06-22T09:31:17;96045.97;;;31.15;61.71
11676;BME280;5894;42.768;23.404;2023-06-22T09:33:52;96047.19;;;31.14;61.32
11676;BME280;5894;42.768;23.404;2023-06-22T09:36:19;96055.41;;;31.11;62.91
11676;BME280;5894;42.768;23.404;2023-06-22T09:38:49;96050.19;;;31.00;61.02
11676;BME280;5894;42.768;23.404;2023-06-22T09:41:20;96040.00;;;30.84;61.84
11676;BME280;5894;42.768;23.404;2023-06-22T09:43:47;96044.34;;;30.82;62.48
11676;BME280;5894;42.768;23.404;2023-06-22T09:46:15;96018.59;;;30.67;60.99
11676;BME280;5894;42.768;23.404;2023-06-22T09:48:42;96017.94;;;30.79;61.70
11676;BME280;5894;42.768;23.404;2023-06-22T09:51:10;96028.72;;;30.66;61.09
11676;BME280;5894;42.768;23.404;2023-06-22T09:53:36;96026.09;;;30.62;62.85
11676;BME280;5894;42.768;23.404;2023-06-22T09:56:05;96031.84;;;30.64;63.89
11676;BME280;5894;42.768;23.404;2023-06-22T09:58:32;96021.06;;;30.61;64.14
11676;BME280;5894;42.768;23.404;2023-06-22T10:00:59;96018.91;;;30.52;63.77
11676;BME280;5894;42.768;23.404;2023-06-22T10:03:28;96008.47;;;30.47;63.71
11676;BME280;5894;42.768;23.404;2023-06-22T10:05:59;96017.88;;;30.43;64.26
11676;BME280;5894;42.768;23.404;2023-06-22T10:08:26;96021.53;;;30.36;63.93
11676;BME280;5894;42.768;23.404;2023-06-22T10:10:53;96019.63;;;30.33;64.35
11676;BME280;5894;42.768;23.404;2023-06-22T10:13:21;96007.66;;;30.31;63.13
11676;BME280;5894;42.768;23.404;2023-06-22T10:15:48;96017.88;;;30.23;64.06
11676;BME280;5894;42.768;23.404;2023-06-22T10:18:17;96010.91;;;30.22;64.06
11676;BME280;5894;42.768;23.404;2023-06-22T10:20:44;96011.00;;;30.18;64.26
11676;BME280;5894;42.768;23.404;2023-06-22T10:23:11;95999.75;;;30.16;64.88
11676;BME280;5894;42.768;23.404;2023-06-22T10:25:38;96005.59;;;30.15;65.08
11676;BME280;5894;42.768;23.404;2023-06-22T10:28:05;96007.16;;;30.16;66.24
11676;BME280;5894;42.768;23.404;2023-06-22T10:30:34;95999.34;;;30.18;65.71
11676;BME280;5894;42.768;23.404;2023-06-22T10:33:01;95997.38;;;30.18;63.10
11676;BME280;5894;42.768;23.404;2023-06-22T10:35:28;95992.41;;;30.13;66.83
11676;BME280;5894;42.768;23.404;2023-06-22T10:37:55;95996.25;;;30.16;68.02
11676;BME280;5894;42.768;23.404;2023-06-22T10:40:23;95994.31;;;30.16;68.76
11676;BME280;5894;42.768;23.404;2023-06-22T10:42:50;95985.03;;;30.14;66.39
11676;BME280;5894;42.768;23.404;2023-06-22T10:45:17;95984.63;;;30.15;68.96
11676;BME280;5894;42.768;23.404;2023-06-22T10:47:45;95979.47;;;30.21;69.36
11676;BME280;5894;42.768;23.404;2023-06-22T10:50:13;95953.00;;;30.02;71.18
11676;BME280;5894;42.768;23.404;2023-06-22T10:52:40;95980.44;;;30.31;68.56
11676;BME280;5894;42.768;23.404;2023-06-22T10:55:08;95947.31;;;30.16;68.83
11676;BME280;5894;42.768;23.404;2023-06-22T10:57:35;95974.28;;;30.46;66.13
11676;BME280;5894;42.768;23.404;2023-06-22T11:00:05;95981.13;;;30.54;66.27
11676;BME280;5894;42.768;23.404;2023-06-22T11:02:34;95993.31;;;30.66;66.71
11676;BME280;5894;42.768;23.404;2023-06-22T11:05:02;95976.56;;;30.68;65.94
11676;BME280;5894;42.768;23.404;2023-06-22T11:07:30;95977.22;;;30.91;63.25
11676;BME280;5894;42.768;23.404;2023-06-22T11:09:58;95980.91;;;31.01;62.47
11676;BME280;5894;42.768;23.404;2023-06-22T11:12:25;95987.66;;;31.13;61.76
11676;BME280;5894;42.768;23.404;2023-06-22T11:14:52;95978.81;;;31.25;61.42
11676;BME280;5894;42.768;23.404;2023-06-22T11:17:19;95977.03;;;31.34;62.09
11676;BME280;5894;42.768;23.404;2023-06-22T11:19:46;95976.66;;;31.49;62.11
11676;BME280;5894;42.768;23.404;2023-06-22T11:22:14;95975.91;;;31.64;60.13
11676;BME280;5894;42.768;23.404;2023-06-22T11:24:41;95971.81;;;31.72;58.30
11676;BME280;5894;42.768;23.404;2023-06-22T11:27:08;95971.94;;;31.82;59.46
11676;BME280;5894;42.768;23.404;2023-06-22T11:29:35;95956.16;;;31.89;57.38
11676;BME280;5894;42.768;23.404;2023-06-22T11:32:05;95946.28;;;31.95;58.76
11676;BME280;5894;42.768;23.404;2023-06-22T11:34:32;95953.69;;;31.95;59.97
11676;BME280;5894;42.768;23.404;2023-06-22T11:36:59;95958.81;;;31.93;59.86
11676;BME280;5894;42.768;23.404;2023-06-22T11:39:27;95956.16;;;31.89;59.87
11676;BME280;5894;42.768;23.404;2023-06-22T11:41:54;95952.09;;;31.81;58.85
11676;BME280;5894;42.768;23.404;2023-06-22T11:44:21;95956.56;;;31.75;57.44
11676;BME280;5894;42.768;23.404;2023-06-22T11:46:48;95968.41;;;31.68;55.27
11676;BME280;5894;42.768;23.404;2023-06-22T11:49:15;95972.91;;;31.59;54.26
11676;BME280;5894;42.768;23.404;2023-06-22T11:51:42;95963.19;;;31.58;53.88
11676;BME280;5894;42.768;23.404;2023-06-22T11:54:09;95962.59;;;31.50;54.65
11676;BME280;5894;42.768;23.404;2023-06-22T11:56:38;95953.59;;;31.53;57.25
11676;BME280;5894;42.768;23.404;2023-06-22T11:59:05;95954.69;;;31.56;55.83
11676;BME280;5894;42.768;23.404;2023-06-22T12:01:32;95961.19;;;31.46;57.26
11676;BME280;5894;42.768;23.404;2023-06-22T12:03:59;95958.25;;;31.36;58.60
11676;BME280;5894;42.768;23.404;2023-06-22T12:06:26;95953.84;;;31.26;60.68
11676;BME280;5894;42.768;23.404;2023-06-22T12:08:53;95947.38;;;31.04;62.99
11676;BME280;5894;42.768;23.404;2023-06-22T12:11:20;95945.13;;;30.83;62.51
11676;BME280;5894;42.768;23.404;2023-06-22T12:13:49;95950.69;;;30.59;63.48
11676;BME280;5894;42.768;23.404;2023-06-22T12:16:16;95956.06;;;30.43;61.55
11676;BME280;5894;42.768;23.404;2023-06-22T12:18:42;95965.09;;;30.40;64.29
11676;BME280;5894;42.768;23.404;2023-06-22T12:21:09;95968.63;;;30.37;65.20
11676;BME280;5894;42.768;23.404;2023-06-22T12:23:37;95973.81;;;30.32;65.98
11676;BME280;5894;42.768;23.404;2023-06-22T12:26:04;95975.69;;;30.15;65.88
11676;BME280;5894;42.768;23.404;2023-06-22T12:28:30;95970.03;;;30.06;66.86
11676;BME280;5894;42.768;23.404;2023-06-22T12:30:59;95981.75;;;30.03;67.79
11676;BME280;5894;42.768;23.404;2023-06-22T12:33:26;95980.88;;;29.86;69.79
11676;BME280;5894;42.768;23.404;2023-06-22T12:35:53;95979.56;;;29.71;67.45
11676;BME280;5894;42.768;23.404;2023-06-22T12:38:20;96001.03;;;29.65;65.90
11676;BME280;5894;42.768;23.404;2023-06-22T12:40:47;96009.06;;;29.49;68.33
11676;BME280;5894;42.768;23.404;2023-06-22T12:43:15;96001.13;;;29.35;71.46
11676;BME280;5894;42.768;23.404;2023-06-22T12:45:42;96006.59;;;29.31;72.95
11676;BME280;5894;42.768;23.404;2023-06-22T12:48:10;95990.44;;;29.24;74.25
11676;BME280;5894;42.768;23.404;2023-06-22T12:50:38;95991.25;;;29.21;74.03
11676;BME280;5894;42.768;23.404;2023-06-22T12:53:05;95997.44;;;29.21;73.44
11676;BME280;5894;42.768;23.404;2023-06-22T12:55:32;96000.53;;;29.24;74.83
11676;BME280;5894;42.768;23.404;2023-06-22T12:57:59;96002.13;;;29.21;75.11
11676;BME280;5894;42.768;23.404;2023-06-22T13:00:26;95998.69;;;29.17;75.60
11676;BME280;5894;42.768;23.404;2023-06-22T13:02:53;96007.13;;;29.23;75.70
11676;BME280;5894;42.768;23.404;2023-06-22T13:05:21;96005.97;;;29.24;75.24
11676;BME280;5894;42.768;23.404;2023-06-22T13:07:49;96006.38;;;29.22;75.10